Jackson, MS (39204)

4:26 PM CDT on August 20, 2014 (GMT -0500)
Brinkly | Change Station
CLOSE
Current Station
Personal Weather Station
Location: Jackson, MS
Elevation: 344 ft
Nearby Weather Stations

Elev 344 ft 32.35 °N, 90.20 °W | Updated 1 minute ago

Clear
Clear
92.1 °F
Feels Like 104 °F
N
0.0
Wind Variable Wind from SSW

Today
High -- | Low -- °F
--% Chance of Precip.
Yesterday
High -- | Low -- °F
Precip. -- in
6:28 AM 7:39 PM
Waning Crescent, 19% visible
Pressure 30.01 in
Visibility 10.0 miles
Clouds Clear
Heat Index 104 °F
Dew Point 76 °F
Humidity 59%
Rainfall 0.00 in
Snow Depth Not available.
UV 7 out of 12
Pollen 8.00 out of 12
Air Quality Not available.
Flu Activity Not available.
METAR KHKS 202053Z 19004KT 10SM CLR 34/21 A3004 RMK AO2 SLP162 T03390206 58015

More Conditions Fewer Conditions

Pressure 30.01 in
Visibility 10.0 miles
Clouds Clear
Heat Index 104 °F
Dew Point 76 °F
Humidity 59%
Rainfall 0.00 in
Snow Depth Not available.
UV 7 out of 12
Pollen 8.00 out of 12
Air Quality Not available.
Flu Activity Not available.
METAR KHKS 202053Z 19004KT 10SM CLR 34/21 A3004 RMK AO2 SLP162 T03390206 58015

More Conditions Fewer Conditions

10-Day Weather Forecast

Almanac

Astronomy

Aug. 20, 2014 Rise Set
Actual Time 6:28 AM CDT 7:39 PM CDT
Civil Twilight 6:02 AM CDT 8:05 PM CDT
Nautical Twilight 5:32 AM CDT 8:35 PM CDT
Astronomical Twilight 5:00 AM CDT 9:06 PM CDT
Moon 2:14 AM CDT 4:18 PM CDT
Length of Visible Light 14h 02m
Length of Day
13h 11m
Tomorrow will be 1m 48s shorter.
Waning Crescent, 19% of the Moon is Illuminated
Today
Waning Crescent
Aug 25
New
Sep 2
First Quarter
Sep 8
Full
Sep 15
Last Quarter

Today's Extremes

State Highs State Lows

Community

WunderPhotos

Upload Photos

1,745,763 photos uploaded!

WunderBlogs® & News

Nearby

Snow Depth

Station Depth Elevation
No new snow has been reported.

Earthquake Activity

City Distance Mag. Time & Date
No recent earthquake activity has been reported nearby.
Minimum magnitude displayed is 2.5.

Coastal Water Temperatures

Place Temperature
No Stations Reporting

Nearby Weather Stations